sensor_id;sensor_type;location;lat;lon;timestamp;P1;durP1;ratioP1;P2;durP2;ratioP2
74124;SDS011;62475;52.192;5.396;2022-10-28T00:01:03;23.70;;;8.77;;
74124;SDS011;62475;52.192;5.396;2022-10-28T00:03:29;17.45;;;8.80;;
74124;SDS011;62475;52.192;5.396;2022-10-28T00:06:02;14.35;;;8.23;;
74124;SDS011;62475;52.192;5.396;2022-10-28T00:08:29;15.75;;;8.60;;
74124;SDS011;62475;52.192;5.396;2022-10-28T00:11:02;15.50;;;8.38;;
74124;SDS011;62475;52.192;5.396;2022-10-28T00:13:35;18.58;;;8.30;;
74124;SDS011;62475;52.192;5.396;2022-10-28T00:16:02;13.18;;;7.85;;
74124;SDS011;62475;52.192;5.396;2022-10-28T00:18:41;17.40;;;8.60;;
74124;SDS011;62475;52.192;5.396;2022-10-28T00:21:12;17.98;;;9.32;;
74124;SDS011;62475;52.192;5.396;2022-10-28T00:23:39;20.30;;;8.43;;
74124;SDS011;62475;52.192;5.396;2022-10-28T00:26:09;14.32;;;7.68;;
74124;SDS011;62475;52.192;5.396;2022-10-28T00:28:40;15.40;;;8.05;;
74124;SDS011;62475;52.192;5.396;2022-10-28T00:31:07;19.83;;;8.95;;
74124;SDS011;62475;52.192;5.396;2022-10-28T00:33:33;18.83;;;8.88;;
74124;SDS011;62475;52.192;5.396;2022-10-28T00:36:06;17.13;;;8.60;;
74124;SDS011;62475;52.192;5.396;2022-10-28T00:38:32;15.77;;;8.65;;
74124;SDS011;62475;52.192;5.396;2022-10-28T00:40:58;15.95;;;7.88;;
74124;SDS011;62475;52.192;5.396;2022-10-28T00:43:37;16.55;;;8.48;;
74124;SDS011;62475;52.192;5.396;2022-10-28T00:46:02;13.65;;;7.40;;
74124;SDS011;62475;52.192;5.396;2022-10-28T00:48:42;18.90;;;7.75;;
74124;SDS011;62475;52.192;5.396;2022-10-28T00:51:11;17.08;;;8.57;;
74124;SDS011;62475;52.192;5.396;2022-10-28T00:53:39;16.65;;;7.97;;
74124;SDS011;62475;52.192;5.396;2022-10-28T00:56:07;13.50;;;8.10;;
74124;SDS011;62475;52.192;5.396;2022-10-28T00:58:34;15.80;;;8.95;;
74124;SDS011;62475;52.192;5.396;2022-10-28T01:00:59;13.98;;;7.80;;
74124;SDS011;62475;52.192;5.396;2022-10-28T01:03:26;15.68;;;8.23;;
74124;SDS011;62475;52.192;5.396;2022-10-28T01:05:52;15.18;;;8.40;;
74124;SDS011;62475;52.192;5.396;2022-10-28T01:08:17;15.45;;;8.63;;
74124;SDS011;62475;52.192;5.396;2022-10-28T01:13:52;13.80;;;8.15;;
74124;SDS011;62475;52.192;5.396;2022-10-28T01:16:41;18.70;;;7.70;;
74124;SDS011;62475;52.192;5.396;2022-10-28T01:22:23;18.20;;;9.50;;
74124;SDS011;62475;52.192;5.396;2022-10-28T01:25:03;13.27;;;8.32;;
74124;SDS011;62475;52.192;5.396;2022-10-28T01:30:51;16.80;;;8.23;;
74124;SDS011;62475;52.192;5.396;2022-10-28T01:33:45;14.30;;;7.75;;
74124;SDS011;62475;52.192;5.396;2022-10-28T01:36:19;15.18;;;7.97;;
74124;SDS011;62475;52.192;5.396;2022-10-28T01:41:51;18.70;;;8.02;;
74124;SDS011;62475;52.192;5.396;2022-10-28T01:49:58;16.25;;;7.78;;
74124;SDS011;62475;52.192;5.396;2022-10-28T01:52:42;17.00;;;8.15;;
74124;SDS011;62475;52.192;5.396;2022-10-28T01:55:25;16.58;;;8.25;;
74124;SDS011;62475;52.192;5.396;2022-10-28T01:57:55;16.58;;;7.95;;
74124;SDS011;62475;52.192;5.396;2022-10-28T02:00:23;20.27;;;8.43;;
74124;SDS011;62475;52.192;5.396;2022-10-28T02:02:50;16.23;;;8.02;;
74124;SDS011;62475;52.192;5.396;2022-10-28T02:10:35;16.75;;;7.18;;
74124;SDS011;62475;52.192;5.396;2022-10-28T02:13:06;15.98;;;8.52;;
74124;SDS011;62475;52.192;5.396;2022-10-28T02:15:39;16.98;;;8.55;;
74124;SDS011;62475;52.192;5.396;2022-10-28T02:18:22;14.73;;;8.02;;
74124;SDS011;62475;52.192;5.396;2022-10-28T02:21:02;14.60;;;8.23;;
74124;SDS011;62475;52.192;5.396;2022-10-28T02:23:41;17.50;;;8.43;;
74124;SDS011;62475;52.192;5.396;2022-10-28T02:26:20;13.75;;;7.80;;
74124;SDS011;62475;52.192;5.396;2022-10-28T02:31:45;18.80;;;8.27;;
74124;SDS011;62475;52.192;5.396;2022-10-28T02:34:29;16.23;;;7.72;;
74124;SDS011;62475;52.192;5.396;2022-10-28T02:37:02;14.05;;;8.05;;
74124;SDS011;62475;52.192;5.396;2022-10-28T02:39:36;17.15;;;9.38;;
74124;SDS011;62475;52.192;5.396;2022-10-28T02:42:10;14.88;;;7.93;;
74124;SDS011;62475;52.192;5.396;2022-10-28T02:44:42;14.52;;;8.75;;
74124;SDS011;62475;52.192;5.396;2022-10-28T02:47:13;15.48;;;7.63;;
74124;SDS011;62475;52.192;5.396;2022-10-28T02:49:43;15.82;;;8.23;;
74124;SDS011;62475;52.192;5.396;2022-10-28T02:52:14;16.13;;;8.07;;
74124;SDS011;62475;52.192;5.396;2022-10-28T02:54:44;18.23;;;8.13;;
74124;SDS011;62475;52.192;5.396;2022-10-28T02:57:28;15.23;;;7.55;;
74124;SDS011;62475;52.192;5.396;2022-10-28T03:00:01;15.27;;;8.52;;
74124;SDS011;62475;52.192;5.396;2022-10-28T03:02:30;14.60;;;8.18;;
74124;SDS011;62475;52.192;5.396;2022-10-28T03:04:55;15.88;;;7.88;;
74124;SDS011;62475;52.192;5.396;2022-10-28T03:07:21;17.25;;;7.80;;
74124;SDS011;62475;52.192;5.396;2022-10-28T03:09:46;20.88;;;8.43;;
74124;SDS011;62475;52.192;5.396;2022-10-28T03:12:11;14.85;;;7.82;;
74124;SDS011;62475;52.192;5.396;2022-10-28T03:14:37;13.60;;;7.70;;
74124;SDS011;62475;52.192;5.396;2022-10-28T03:17:02;18.33;;;8.57;;
74124;SDS011;62475;52.192;5.396;2022-10-28T03:19:28;16.00;;;8.10;;
74124;SDS011;62475;52.192;5.396;2022-10-28T03:21:53;20.60;;;7.65;;
74124;SDS011;62475;52.192;5.396;2022-10-28T03:24:19;18.98;;;7.78;;
74124;SDS011;62475;52.192;5.396;2022-10-28T03:26:44;15.23;;;7.78;;
74124;SDS011;62475;52.192;5.396;2022-10-28T03:29:10;15.25;;;8.02;;
74124;SDS011;62475;52.192;5.396;2022-10-28T03:31:35;19.00;;;7.83;;
74124;SDS011;62475;52.192;5.396;2022-10-28T03:34:00;16.10;;;7.57;;
74124;SDS011;62475;52.192;5.396;2022-10-28T03:36:26;12.68;;;7.45;;
74124;SDS011;62475;52.192;5.396;2022-10-28T03:38:51;13.55;;;7.22;;
74124;SDS011;62475;52.192;5.396;2022-10-28T03:41:16;14.45;;;7.43;;
74124;SDS011;62475;52.192;5.396;2022-10-28T03:43:42;12.30;;;7.63;;
74124;SDS011;62475;52.192;5.396;2022-10-28T03:46:07;16.98;;;8.07;;
74124;SDS011;62475;52.192;5.396;2022-10-28T03:48:32;15.10;;;8.02;;
74124;SDS011;62475;52.192;5.396;2022-10-28T03:50:58;14.52;;;8.07;;
74124;SDS011;62475;52.192;5.396;2022-10-28T03:53:23;12.27;;;7.35;;
74124;SDS011;62475;52.192;5.396;2022-10-28T03:55:52;18.73;;;7.93;;
74124;SDS011;62475;52.192;5.396;2022-10-28T03:58:18;14.52;;;7.60;;
74124;SDS011;62475;52.192;5.396;2022-10-28T04:00:44;13.40;;;6.93;;
74124;SDS011;62475;52.192;5.396;2022-10-28T04:03:12;12.60;;;8.20;;
74124;SDS011;62475;52.192;5.396;2022-10-28T04:05:37;15.15;;;9.10;;
74124;SDS011;62475;52.192;5.396;2022-10-28T04:08:03;11.53;;;7.10;;
74124;SDS011;62475;52.192;5.396;2022-10-28T04:10:28;15.90;;;8.05;;
74124;SDS011;62475;52.192;5.396;2022-10-28T04:12:58;18.95;;;8.13;;
74124;SDS011;62475;52.192;5.396;2022-10-28T04:15:27;16.27;;;8.40;;
74124;SDS011;62475;52.192;5.396;2022-10-28T04:17:52;17.88;;;8.52;;
74124;SDS011;62475;52.192;5.396;2022-10-28T04:20:17;11.98;;;6.55;;
74124;SDS011;62475;52.192;5.396;2022-10-28T04:22:43;16.35;;;7.53;;
74124;SDS011;62475;52.192;5.396;2022-10-28T04:25:08;18.23;;;7.25;;
74124;SDS011;62475;52.192;5.396;2022-10-28T04:27:33;15.73;;;7.47;;
74124;SDS011;62475;52.192;5.396;2022-10-28T04:29:59;13.00;;;7.32;;
74124;SDS011;62475;52.192;5.396;2022-10-28T04:32:24;12.15;;;6.72;;
74124;SDS011;62475;52.192;5.396;2022-10-28T04:34:51;15.20;;;6.85;;
74124;SDS011;62475;52.192;5.396;2022-10-28T04:37:16;13.70;;;7.03;;
74124;SDS011;62475;52.192;5.396;2022-10-28T04:39:42;16.02;;;7.70;;
74124;SDS011;62475;52.192;5.396;2022-10-28T04:42:07;14.85;;;6.82;;
74124;SDS011;62475;52.192;5.396;2022-10-28T04:44:32;15.82;;;7.20;;
74124;SDS011;62475;52.192;5.396;2022-10-28T04:46:58;11.65;;;7.25;;
74124;SDS011;62475;52.192;5.396;2022-10-28T04:49:23;12.40;;;6.93;;
74124;SDS011;62475;52.192;5.396;2022-10-28T04:51:48;21.35;;;7.30;;
74124;SDS011;62475;52.192;5.396;2022-10-28T04:54:14;16.30;;;7.13;;
74124;SDS011;62475;52.192;5.396;2022-10-28T04:56:41;13.13;;;6.72;;
74124;SDS011;62475;52.192;5.396;2022-10-28T04:59:06;14.48;;;7.15;;
74124;SDS011;62475;52.192;5.396;2022-10-28T05:01:31;13.93;;;7.00;;
74124;SDS011;62475;52.192;5.396;2022-10-28T05:03:57;11.65;;;6.20;;
74124;SDS011;62475;52.192;5.396;2022-10-28T05:06:22;19.23;;;6.75;;
74124;SDS011;62475;52.192;5.396;2022-10-28T05:08:48;13.80;;;6.35;;
74124;SDS011;62475;52.192;5.396;2022-10-28T05:11:13;16.52;;;6.63;;
74124;SDS011;62475;52.192;5.396;2022-10-28T05:13:38;14.55;;;7.82;;
74124;SDS011;62475;52.192;5.396;2022-10-28T05:16:04;14.10;;;6.53;;
74124;SDS011;62475;52.192;5.396;2022-10-28T05:18:29;11.65;;;5.97;;
74124;SDS011;62475;52.192;5.396;2022-10-28T05:20:55;15.70;;;6.97;;
74124;SDS011;62475;52.192;5.396;2022-10-28T05:23:21;14.80;;;6.43;;
74124;SDS011;62475;52.192;5.396;2022-10-28T05:25:47;14.48;;;6.07;;
74124;SDS011;62475;52.192;5.396;2022-10-28T05:28:13;13.32;;;6.75;;
74124;SDS011;62475;52.192;5.396;2022-10-28T05:30:38;12.05;;;6.10;;
74124;SDS011;62475;52.192;5.396;2022-10-28T05:33:04;14.27;;;6.75;;
74124;SDS011;62475;52.192;5.396;2022-10-28T05:35:29;11.52;;;5.85;;
74124;SDS011;62475;52.192;5.396;2022-10-28T05:37:55;15.25;;;6.78;;
74124;SDS011;62475;52.192;5.396;2022-10-28T05:40:21;16.15;;;6.72;;
74124;SDS011;62475;52.192;5.396;2022-10-28T05:42:46;16.80;;;6.53;;
74124;SDS011;62475;52.192;5.396;2022-10-28T05:45:12;13.20;;;6.22;;
74124;SDS011;62475;52.192;5.396;2022-10-28T05:47:43;15.13;;;7.32;;
74124;SDS011;62475;52.192;5.396;2022-10-28T05:50:10;16.58;;;7.03;;
74124;SDS011;62475;52.192;5.396;2022-10-28T05:52:37;12.82;;;6.78;;
74124;SDS011;62475;52.192;5.396;2022-10-28T05:55:02;15.05;;;6.95;;
74124;SDS011;62475;52.192;5.396;2022-10-28T05:57:28;13.70;;;5.90;;
74124;SDS011;62475;52.192;5.396;2022-10-28T05:59:53;12.40;;;6.77;;
74124;SDS011;62475;52.192;5.396;2022-10-28T06:02:19;12.45;;;6.45;;
74124;SDS011;62475;52.192;5.396;2022-10-28T06:04:44;13.75;;;6.32;;
74124;SDS011;62475;52.192;5.396;2022-10-28T06:07:09;13.30;;;6.50;;
74124;SDS011;62475;52.192;5.396;2022-10-28T06:09:35;16.08;;;6.03;;
74124;SDS011;62475;52.192;5.396;2022-10-28T06:12:01;17.48;;;6.30;;
74124;SDS011;62475;52.192;5.396;2022-10-28T06:14:27;19.55;;;6.60;;
74124;SDS011;62475;52.192;5.396;2022-10-28T06:16:52;16.17;;;6.40;;
74124;SDS011;62475;52.192;5.396;2022-10-28T06:19:17;16.45;;;5.85;;
74124;SDS011;62475;52.192;5.396;2022-10-28T06:21:43;12.20;;;5.22;;
74124;SDS011;62475;52.192;5.396;2022-10-28T06:24:08;13.40;;;7.22;;
74124;SDS011;62475;52.192;5.396;2022-10-28T06:26:34;13.00;;;5.93;;
74124;SDS011;62475;52.192;5.396;2022-10-28T06:28:59;12.40;;;6.13;;
74124;SDS011;62475;52.192;5.396;2022-10-28T06:31:25;13.02;;;7.05;;
74124;SDS011;62475;52.192;5.396;2022-10-28T06:33:50;13.80;;;5.80;;
74124;SDS011;62475;52.192;5.396;2022-10-28T06:36:15;9.63;;;5.60;;
74124;SDS011;62475;52.192;5.396;2022-10-28T06:38:41;12.60;;;5.82;;
74124;SDS011;62475;52.192;5.396;2022-10-28T06:41:06;10.57;;;6.03;;
74124;SDS011;62475;52.192;5.396;2022-10-28T06:43:31;13.27;;;5.75;;
74124;SDS011;62475;52.192;5.396;2022-10-28T06:46:00;15.17;;;5.93;;
74124;SDS011;62475;52.192;5.396;2022-10-28T06:48:26;13.82;;;6.50;;
74124;SDS011;62475;52.192;5.396;2022-10-28T06:50:53;14.60;;;6.88;;
74124;SDS011;62475;52.192;5.396;2022-10-28T06:53:19;14.75;;;5.80;;
74124;SDS011;62475;52.192;5.396;2022-10-28T06:55:50;10.68;;;5.45;;
74124;SDS011;62475;52.192;5.396;2022-10-28T06:58:17;11.00;;;5.50;;
74124;SDS011;62475;52.192;5.396;2022-10-28T07:00:42;16.50;;;7.07;;
74124;SDS011;62475;52.192;5.396;2022-10-28T07:03:08;11.95;;;6.88;;
74124;SDS011;62475;52.192;5.396;2022-10-28T07:05:34;11.70;;;5.63;;
74124;SDS011;62475;52.192;5.396;2022-10-28T07:07:59;11.65;;;5.68;;
74124;SDS011;62475;52.192;5.396;2022-10-28T07:10:25;10.35;;;5.70;;
74124;SDS011;62475;52.192;5.396;2022-10-28T07:12:51;14.23;;;6.57;;
74124;SDS011;62475;52.192;5.396;2022-10-28T07:15:16;11.32;;;4.97;;
74124;SDS011;62475;52.192;5.396;2022-10-28T07:17:42;10.30;;;5.40;;
74124;SDS011;62475;52.192;5.396;2022-10-28T07:20:07;12.30;;;5.40;;
74124;SDS011;62475;52.192;5.396;2022-10-28T07:22:33;12.75;;;5.55;;
74124;SDS011;62475;52.192;5.396;2022-10-28T07:24:58;13.35;;;5.57;;
74124;SDS011;62475;52.192;5.396;2022-10-28T07:27:23;12.68;;;5.20;;
74124;SDS011;62475;52.192;5.396;2022-10-28T07:29:49;11.65;;;5.03;;
74124;SDS011;62475;52.192;5.396;2022-10-28T07:32:14;11.18;;;6.35;;
74124;SDS011;62475;52.192;5.396;2022-10-28T07:34:39;15.98;;;5.85;;
74124;SDS011;62475;52.192;5.396;2022-10-28T07:37:05;16.03;;;6.67;;
74124;SDS011;62475;52.192;5.396;2022-10-28T07:39:30;12.38;;;6.32;;
74124;SDS011;62475;52.192;5.396;2022-10-28T07:41:55;11.32;;;5.43;;
74124;SDS011;62475;52.192;5.396;2022-10-28T07:44:21;11.02;;;5.65;;
74124;SDS011;62475;52.192;5.396;2022-10-28T07:46:46;14.15;;;5.70;;
74124;SDS011;62475;52.192;5.396;2022-10-28T07:49:11;11.20;;;6.22;;
74124;SDS011;62475;52.192;5.396;2022-10-28T07:51:37;18.23;;;6.07;;
74124;SDS011;62475;52.192;5.396;2022-10-28T07:54:03;13.20;;;5.68;;
74124;SDS011;62475;52.192;5.396;2022-10-28T07:56:28;12.10;;;4.80;;
74124;SDS011;62475;52.192;5.396;2022-10-28T07:58:54;13.00;;;5.53;;
74124;SDS011;62475;52.192;5.396;2022-10-28T08:01:20;11.82;;;5.88;;
74124;SDS011;62475;52.192;5.396;2022-10-28T08:03:46;16.10;;;5.03;;
74124;SDS011;62475;52.192;5.396;2022-10-28T08:06:14;15.85;;;5.80;;
74124;SDS011;62475;52.192;5.396;2022-10-28T08:08:43;13.02;;;5.28;;
74124;SDS011;62475;52.192;5.396;2022-10-28T08:11:14;16.90;;;5.13;;
74124;SDS011;62475;52.192;5.396;2022-10-28T08:13:41;13.45;;;5.38;;
74124;SDS011;62475;52.192;5.396;2022-10-28T08:16:06;8.57;;;5.18;;
74124;SDS011;62475;52.192;5.396;2022-10-28T08:18:33;12.15;;;5.20;;
74124;SDS011;62475;52.192;5.396;2022-10-28T08:20:59;10.88;;;5.00;;
74124;SDS011;62475;52.192;5.396;2022-10-28T08:23:26;15.23;;;5.40;;
74124;SDS011;62475;52.192;5.396;2022-10-28T08:25:52;10.60;;;5.40;;
74124;SDS011;62475;52.192;5.396;2022-10-28T08:28:18;15.80;;;5.30;;
74124;SDS011;62475;52.192;5.396;2022-10-28T08:30:44;8.55;;;4.75;;
74124;SDS011;62475;52.192;5.396;2022-10-28T08:33:10;10.70;;;4.70;;
74124;SDS011;62475;52.192;5.396;2022-10-28T08:35:35;11.02;;;5.28;;
74124;SDS011;62475;52.192;5.396;2022-10-28T08:38:01;12.38;;;4.47;;
74124;SDS011;62475;52.192;5.396;2022-10-28T08:40:48;9.68;;;4.57;;
74124;SDS011;62475;52.192;5.396;2022-10-28T08:43:27;13.68;;;5.10;;
74124;SDS011;62475;52.192;5.396;2022-10-28T08:46:44;18.65;;;5.18;;
74124;SDS011;62475;52.192;5.396;2022-10-28T08:49:32;15.93;;;5.72;;
74124;SDS011;62475;52.192;5.396;2022-10-28T08:57:54;13.32;;;4.88;;
74124;SDS011;62475;52.192;5.396;2022-10-28T09:00:29;7.93;;;4.55;;
74124;SDS011;62475;52.192;5.396;2022-10-28T09:03:16;15.55;;;4.60;;
74124;SDS011;62475;52.192;5.396;2022-10-28T09:05:47;10.27;;;4.35;;
74124;SDS011;62475;52.192;5.396;2022-10-28T09:08:27;14.60;;;4.78;;
74124;SDS011;62475;52.192;5.396;2022-10-28T09:10:58;14.40;;;4.35;;
74124;SDS011;62475;52.192;5.396;2022-10-28T09:19:07;9.95;;;4.65;;
74124;SDS011;62475;52.192;5.396;2022-10-28T09:24:19;11.77;;;4.60;;
74124;SDS011;62475;52.192;5.396;2022-10-28T09:29:27;11.88;;;4.15;;
74124;SDS011;62475;52.192;5.396;2022-10-28T09:32:14;11.90;;;4.47;;
74124;SDS011;62475;52.192;5.396;2022-10-28T09:34:53;11.75;;;4.18;;
74124;SDS011;62475;52.192;5.396;2022-10-28T09:37:27;13.13;;;4.63;;
74124;SDS011;62475;52.192;5.396;2022-10-28T09:39:59;12.90;;;4.25;;
74124;SDS011;62475;52.192;5.396;2022-10-28T09:42:30;17.40;;;4.50;;
74124;SDS011;62475;52.192;5.396;2022-10-28T09:45:04;13.32;;;4.22;;
74124;SDS011;62475;52.192;5.396;2022-10-28T09:47:39;11.15;;;4.75;;
74124;SDS011;62475;52.192;5.396;2022-10-28T09:50:18;15.18;;;4.40;;
74124;SDS011;62475;52.192;5.396;2022-10-28T09:55:26;12.00;;;4.50;;
74124;SDS011;62475;52.192;5.396;2022-10-28T09:57:56;13.27;;;4.63;;
74124;SDS011;62475;52.192;5.396;2022-10-28T10:00:28;8.00;;;4.28;;
74124;SDS011;62475;52.192;5.396;2022-10-28T10:02:55;14.07;;;4.55;;
74124;SDS011;62475;52.192;5.396;2022-10-28T10:05:34;10.38;;;4.53;;
74124;SDS011;62475;52.192;5.396;2022-10-28T10:08:19;10.05;;;4.80;;
74124;SDS011;62475;52.192;5.396;2022-10-28T10:13:28;17.25;;;6.18;;
74124;SDS011;62475;52.192;5.396;2022-10-28T10:19:07;14.80;;;4.63;;
74124;SDS011;62475;52.192;5.396;2022-10-28T10:21:42;9.75;;;4.35;;
74124;SDS011;62475;52.192;5.396;2022-10-28T10:27:00;12.35;;;4.00;;
74124;SDS011;62475;52.192;5.396;2022-10-28T10:29:42;7.95;;;4.38;;
74124;SDS011;62475;52.192;5.396;2022-10-28T10:32:14;10.05;;;4.82;;
74124;SDS011;62475;52.192;5.396;2022-10-28T10:34:43;10.15;;;3.92;;
74124;SDS011;62475;52.192;5.396;2022-10-28T10:37:17;8.80;;;4.10;;
74124;SDS011;62475;52.192;5.396;2022-10-28T10:39:49;13.77;;;3.65;;
74124;SDS011;62475;52.192;5.396;2022-10-28T10:42:28;12.80;;;4.20;;
74124;SDS011;62475;52.192;5.396;2022-10-28T10:45:15;9.80;;;4.30;;
74124;SDS011;62475;52.192;5.396;2022-10-28T10:47:44;13.52;;;4.65;;
74124;SDS011;62475;52.192;5.396;2022-10-28T10:52:50;11.98;;;4.03;;
74124;SDS011;62475;52.192;5.396;2022-10-28T10:55:22;10.85;;;4.47;;
74124;SDS011;62475;52.192;5.396;2022-10-28T10:57:55;11.52;;;3.92;;
74124;SDS011;62475;52.192;5.396;2022-10-28T11:00:20;12.02;;;4.15;;
74124;SDS011;62475;52.192;5.396;2022-10-28T11:02:48;8.95;;;3.70;;
74124;SDS011;62475;52.192;5.396;2022-10-28T11:05:18;17.35;;;4.70;;
74124;SDS011;62475;52.192;5.396;2022-10-28T11:07:46;14.32;;;4.28;;
74124;SDS011;62475;52.192;5.396;2022-10-28T11:10:23;6.88;;;4.53;;
74124;SDS011;62475;52.192;5.396;2022-10-28T11:12:57;9.77;;;4.05;;
74124;SDS011;62475;52.192;5.396;2022-10-28T11:15:26;11.38;;;4.07;;
74124;SDS011;62475;52.192;5.396;2022-10-28T11:17:57;10.93;;;4.40;;
74124;SDS011;62475;52.192;5.396;2022-10-28T11:20:53;9.90;;;4.07;;
74124;SDS011;62475;52.192;5.396;2022-10-28T11:23:27;10.25;;;4.20;;
74124;SDS011;62475;52.192;5.396;2022-10-28T11:26:09;11.55;;;5.13;;
74124;SDS011;62475;52.192;5.396;2022-10-28T11:31:29;11.60;;;4.13;;
74124;SDS011;62475;52.192;5.396;2022-10-28T11:37:59;9.98;;;4.13;;
74124;SDS011;62475;52.192;5.396;2022-10-28T11:43:33;11.05;;;4.40;;
74124;SDS011;62475;52.192;5.396;2022-10-28T12:03:14;11.90;;;3.88;;
74124;SDS011;62475;52.192;5.396;2022-10-28T12:05:48;12.35;;;3.85;;
74124;SDS011;62475;52.192;5.396;2022-10-28T12:13:58;11.10;;;3.60;;
74124;SDS011;62475;52.192;5.396;2022-10-28T12:20:02;7.18;;;3.65;;
74124;SDS011;62475;52.192;5.396;2022-10-28T12:22:38;12.95;;;4.15;;
74124;SDS011;62475;52.192;5.396;2022-10-28T12:25:14;12.32;;;3.80;;
74124;SDS011;62475;52.192;5.396;2022-10-28T12:27:43;11.70;;;4.20;;
74124;SDS011;62475;52.192;5.396;2022-10-28T12:30:16;9.10;;;3.70;;
74124;SDS011;62475;52.192;5.396;2022-10-28T12:32:45;18.60;;;4.22;;
74124;SDS011;62475;52.192;5.396;2022-10-28T12:35:23;11.55;;;3.50;;
74124;SDS011;62475;52.192;5.396;2022-10-28T12:37:53;18.60;;;3.58;;
74124;SDS011;62475;52.192;5.396;2022-10-28T12:40:24;14.90;;;4.10;;
74124;SDS011;62475;52.192;5.396;2022-10-28T12:42:57;11.73;;;3.30;;
74124;SDS011;62475;52.192;5.396;2022-10-28T12:45:37;11.32;;;3.40;;
74124;SDS011;62475;52.192;5.396;2022-10-28T12:48:18;10.35;;;3.70;;
74124;SDS011;62475;52.192;5.396;2022-10-28T12:50:52;8.25;;;3.05;;
74124;SDS011;62475;52.192;5.396;2022-10-28T12:53:45;10.02;;;3.65;;
74124;SDS011;62475;52.192;5.396;2022-10-28T12:56:21;11.00;;;3.30;;
74124;SDS011;62475;52.192;5.396;2022-10-28T13:01:29;12.85;;;3.28;;
74124;SDS011;62475;52.192;5.396;2022-10-28T13:03:57;11.32;;;4.18;;
74124;SDS011;62475;52.192;5.396;2022-10-28T13:06:32;10.52;;;3.80;;
74124;SDS011;62475;52.192;5.396;2022-10-28T13:09:30;7.57;;;3.50;;
74124;SDS011;62475;52.192;5.396;2022-10-28T13:12:16;10.82;;;3.97;;
74124;SDS011;62475;52.192;5.396;2022-10-28T13:14:52;16.23;;;4.10;;
74124;SDS011;62475;52.192;5.396;2022-10-28T13:17:42;11.90;;;3.38;;
74124;SDS011;62475;52.192;5.396;2022-10-28T13:23:10;12.37;;;4.37;;
74124;SDS011;62475;52.192;5.396;2022-10-28T13:25:44;11.90;;;3.33;;
74124;SDS011;62475;52.192;5.396;2022-10-28T13:28:29;11.90;;;4.03;;
74124;SDS011;62475;52.192;5.396;2022-10-28T13:30:59;14.68;;;3.65;;
74124;SDS011;62475;52.192;5.396;2022-10-28T13:33:27;10.35;;;3.63;;
74124;SDS011;62475;52.192;5.396;2022-10-28T13:35:54;11.52;;;3.78;;
74124;SDS011;62475;52.192;5.396;2022-10-28T13:38:34;11.75;;;4.60;;
74124;SDS011;62475;52.192;5.396;2022-10-28T13:46:57;11.85;;;4.20;;
74124;SDS011;62475;52.192;5.396;2022-10-28T13:49:30;7.93;;;3.30;;
74124;SDS011;62475;52.192;5.396;2022-10-28T13:52:39;9.00;;;4.85;;
74124;SDS011;62475;52.192;5.396;2022-10-28T13:57:23;15.68;;;4.50;;
74124;SDS011;62475;52.192;5.396;2022-10-28T13:59:59;11.98;;;4.03;;
74124;SDS011;62475;52.192;5.396;2022-10-28T14:02:53;9.07;;;3.55;;
74124;SDS011;62475;52.192;5.396;2022-10-28T14:05:26;8.60;;;3.42;;
74124;SDS011;62475;52.192;5.396;2022-10-28T14:08:17;12.88;;;4.47;;
74124;SDS011;62475;52.192;5.396;2022-10-28T14:13:30;10.23;;;3.70;;
74124;SDS011;62475;52.192;5.396;2022-10-28T14:16:10;7.45;;;3.38;;
74124;SDS011;62475;52.192;5.396;2022-10-28T14:18:57;10.05;;;4.03;;
74124;SDS011;62475;52.192;5.396;2022-10-28T14:24:38;9.52;;;3.70;;
74124;SDS011;62475;52.192;5.396;2022-10-28T14:29:31;12.85;;;4.07;;
74124;SDS011;62475;52.192;5.396;2022-10-28T14:34:54;8.27;;;3.58;;
74124;SDS011;62475;52.192;5.396;2022-10-28T14:37:32;9.07;;;3.70;;
74124;SDS011;62475;52.192;5.396;2022-10-28T14:43:20;10.57;;;3.88;;
74124;SDS011;62475;52.192;5.396;2022-10-28T14:45:59;12.82;;;4.07;;
74124;SDS011;62475;52.192;5.396;2022-10-28T14:48:43;10.70;;;3.38;;
74124;SDS011;62475;52.192;5.396;2022-10-28T14:51:12;11.68;;;3.75;;
74124;SDS011;62475;52.192;5.396;2022-10-28T14:53:41;15.38;;;4.07;;
74124;SDS011;62475;52.192;5.396;2022-10-28T14:56:09;12.95;;;3.90;;
74124;SDS011;62475;52.192;5.396;2022-10-28T14:58:43;9.07;;;3.63;;
74124;SDS011;62475;52.192;5.396;2022-10-28T15:03:50;8.48;;;3.97;;
74124;SDS011;62475;52.192;5.396;2022-10-28T15:06:25;11.77;;;3.47;;
74124;SDS011;62475;52.192;5.396;2022-10-28T15:08:54;12.52;;;3.63;;
74124;SDS011;62475;52.192;5.396;2022-10-28T15:11:21;9.05;;;3.22;;
74124;SDS011;62475;52.192;5.396;2022-10-28T15:13:48;7.55;;;2.95;;
74124;SDS011;62475;52.192;5.396;2022-10-28T15:16:23;10.30;;;3.42;;
74124;SDS011;62475;52.192;5.396;2022-10-28T15:18:50;10.35;;;3.45;;
74124;SDS011;62475;52.192;5.396;2022-10-28T15:21:19;14.45;;;4.22;;
74124;SDS011;62475;52.192;5.396;2022-10-28T15:24:01;11.93;;;3.80;;
74124;SDS011;62475;52.192;5.396;2022-10-28T15:26:30;13.13;;;3.85;;
74124;SDS011;62475;52.192;5.396;2022-10-28T15:28:56;8.80;;;4.30;;
74124;SDS011;62475;52.192;5.396;2022-10-28T15:31:22;7.38;;;2.85;;
74124;SDS011;62475;52.192;5.396;2022-10-28T15:33:47;9.20;;;3.15;;
74124;SDS011;62475;52.192;5.396;2022-10-28T15:36:19;13.07;;;3.08;;
74124;SDS011;62475;52.192;5.396;2022-10-28T15:39:05;8.70;;;3.25;;
74124;SDS011;62475;52.192;5.396;2022-10-28T15:49:36;12.68;;;3.03;;
74124;SDS011;62475;52.192;5.396;2022-10-28T15:54:40;12.95;;;3.00;;
74124;SDS011;62475;52.192;5.396;2022-10-28T15:57:11;13.15;;;3.05;;
74124;SDS011;62475;52.192;5.396;2022-10-28T15:59:45;5.70;;;2.90;;
74124;SDS011;62475;52.192;5.396;2022-10-28T16:02:37;9.48;;;2.65;;
74124;SDS011;62475;52.192;5.396;2022-10-28T16:08:00;18.60;;;4.45;;
74124;SDS011;62475;52.192;5.396;2022-10-28T16:10:27;10.13;;;2.67;;
74124;SDS011;62475;52.192;5.396;2022-10-28T16:12:59;7.63;;;2.78;;
74124;SDS011;62475;52.192;5.396;2022-10-28T16:15:25;9.73;;;2.70;;
74124;SDS011;62475;52.192;5.396;2022-10-28T16:17:51;9.80;;;3.08;;
74124;SDS011;62475;52.192;5.396;2022-10-28T16:20:17;9.75;;;2.83;;
74124;SDS011;62475;52.192;5.396;2022-10-28T16:22:45;9.82;;;2.72;;
74124;SDS011;62475;52.192;5.396;2022-10-28T16:25:15;8.23;;;2.92;;
74124;SDS011;62475;52.192;5.396;2022-10-28T16:27:44;4.35;;;2.50;;
74124;SDS011;62475;52.192;5.396;2022-10-28T16:30:09;8.37;;;2.93;;
74124;SDS011;62475;52.192;5.396;2022-10-28T16:32:45;9.25;;;3.50;;
74124;SDS011;62475;52.192;5.396;2022-10-28T16:35:19;11.25;;;3.47;;
74124;SDS011;62475;52.192;5.396;2022-10-28T16:37:46;12.07;;;3.15;;
74124;SDS011;62475;52.192;5.396;2022-10-28T16:40:13;10.48;;;3.67;;
74124;SDS011;62475;52.192;5.396;2022-10-28T16:42:39;8.32;;;3.33;;
74124;SDS011;62475;52.192;5.396;2022-10-28T16:45:05;11.95;;;3.00;;
74124;SDS011;62475;52.192;5.396;2022-10-28T16:47:32;8.90;;;3.05;;
74124;SDS011;62475;52.192;5.396;2022-10-28T16:49:57;8.52;;;2.80;;
74124;SDS011;62475;52.192;5.396;2022-10-28T16:52:24;11.73;;;3.13;;
74124;SDS011;62475;52.192;5.396;2022-10-28T16:57:17;7.43;;;3.27;;
74124;SDS011;62475;52.192;5.396;2022-10-28T16:59:44;9.38;;;2.97;;
74124;SDS011;62475;52.192;5.396;2022-10-28T17:04:55;13.55;;;3.40;;
74124;SDS011;62475;52.192;5.396;2022-10-28T17:07:21;12.88;;;3.50;;
74124;SDS011;62475;52.192;5.396;2022-10-28T17:09:46;9.85;;;3.30;;
74124;SDS011;62475;52.192;5.396;2022-10-28T17:12:12;9.32;;;3.20;;
74124;SDS011;62475;52.192;5.396;2022-10-28T17:14:39;9.30;;;3.20;;
74124;SDS011;62475;52.192;5.396;2022-10-28T17:17:04;10.57;;;3.85;;